createdAt,value
2018-07-20T00:00:07.154Z,31.74
2018-07-20T00:02:36.389Z,31.79
2018-07-20T00:05:06.477Z,31.98
2018-07-20T00:07:35.941Z,31.97
2018-07-20T00:10:05.366Z,32.43
2018-07-20T00:12:34.652Z,32.78
2018-07-20T00:15:03.981Z,32.50
2018-07-20T00:17:33.231Z,33.00
2018-07-20T00:20:02.512Z,32.62
2018-07-20T00:22:31.820Z,33.20
2018-07-20T00:25:01.065Z,32.96
2018-07-20T00:27:30.417Z,32.70
2018-07-20T00:29:59.666Z,32.89
2018-07-20T00:32:29.023Z,33.23
2018-07-20T00:34:58.355Z,33.12
2018-07-20T00:37:27.523Z,33.10
2018-07-20T00:39:56.760Z,33.28
2018-07-20T00:42:26.110Z,33.31
2018-07-20T00:44:55.665Z,33.27
2018-07-20T00:47:24.987Z,33.52
2018-07-20T00:49:54.394Z,33.83
2018-07-20T00:52:23.678Z,33.42
2018-07-20T00:54:53.081Z,33.69
2018-07-20T00:57:22.382Z,34.08
2018-07-20T00:59:51.682Z,34.32
2018-07-20T01:02:21.495Z,34.31
2018-07-20T01:04:51.367Z,34.23
2018-07-20T01:07:20.610Z,34.51
2018-07-20T01:09:50.017Z,34.62
2018-07-20T01:12:19.285Z,35.03
2018-07-20T01:14:48.498Z,34.95
2018-07-20T01:17:17.799Z,35.25
2018-07-20T01:19:47.024Z,35.72
2018-07-20T01:22:16.301Z,35.42
2018-07-20T01:24:45.724Z,35.71
2018-07-20T01:27:15.013Z,35.63
2018-07-20T01:29:44.420Z,35.92
2018-07-20T01:32:13.818Z,35.47
2018-07-20T01:34:43.121Z,35.38
2018-07-20T01:37:12.420Z,35.91
2018-07-20T01:39:41.864Z,35.83
2018-07-20T01:42:11.022Z,35.55
2018-07-20T01:44:40.425Z,35.56
2018-07-20T01:47:09.830Z,35.65
2018-07-20T01:49:39.218Z,35.50
2018-07-20T01:52:08.438Z,35.50
2018-07-20T01:54:37.719Z,36.02
2018-07-20T01:57:07.161Z,35.71
2018-07-20T01:59:36.389Z,35.59
2018-07-20T02:02:05.672Z,36.33
2018-07-20T02:04:35.239Z,35.93
2018-07-20T02:07:04.539Z,35.97
2018-07-20T02:09:33.843Z,36.05
2018-07-20T02:12:03.235Z,36.34
2018-07-20T02:14:33.010Z,36.49
2018-07-20T02:17:02.396Z,36.13
2018-07-20T02:19:31.848Z,36.30
2018-07-20T02:22:01.270Z,36.34
2018-07-20T02:24:30.626Z,36.48
2018-07-20T02:26:59.976Z,36.68
2018-07-20T02:29:29.222Z,36.84
2018-07-20T02:31:58.573Z,36.92
2018-07-20T02:34:27.832Z,37.37
2018-07-20T02:36:57.082Z,37.58
2018-07-20T02:39:26.335Z,37.93
2018-07-20T02:41:55.567Z,38.43
2018-07-20T02:44:24.869Z,38.68
2018-07-20T02:46:54.385Z,38.54
2018-07-20T02:49:23.650Z,37.93
2018-07-20T02:51:53.009Z,37.81
2018-07-20T02:54:22.251Z,37.56
2018-07-20T02:56:51.604Z,37.74
2018-07-20T02:59:20.853Z,37.62
2018-07-20T03:01:50.211Z,38.35
2018-07-20T03:04:19.532Z,38.38
2018-07-20T03:06:49.086Z,38.81
2018-07-20T03:09:18.387Z,39.46
2018-07-20T03:11:47.912Z,39.65
2018-07-20T03:14:17.241Z,40.11
2018-07-20T03:16:46.510Z,40.27
2018-07-20T03:19:15.954Z,40.82
2018-07-20T03:21:45.199Z,40.25
2018-07-20T03:24:14.757Z,40.56
2018-07-20T03:26:44.005Z,40.13
2018-07-20T03:29:13.393Z,40.11
2018-07-20T03:31:42.704Z,39.83
2018-07-20T03:34:12.010Z,39.43
2018-07-20T03:36:41.430Z,39.83
2018-07-20T03:39:11.333Z,39.90
2018-07-20T03:41:40.619Z,40.38
2018-07-20T03:44:09.969Z,40.50
2018-07-20T03:46:39.329Z,40.85
2018-07-20T03:49:08.603Z,41.13
2018-07-20T03:51:38.031Z,41.32
2018-07-20T03:54:07.390Z,41.48
2018-07-20T03:56:36.721Z,41.48
2018-07-20T03:59:05.999Z,41.68
2018-07-20T04:01:35.238Z,42.37
2018-07-20T04:04:04.526Z,42.33
2018-07-20T04:06:33.828Z,42.58
2018-07-20T04:09:03.137Z,42.27
2018-07-20T04:11:32.534Z,42.18
2018-07-20T04:14:01.901Z,42.22
2018-07-20T04:16:31.159Z,43.03
2018-07-20T04:19:00.497Z,42.79
2018-07-20T04:21:29.861Z,43.47
2018-07-20T04:23:59.103Z,43.10
2018-07-20T04:26:28.381Z,43.53
2018-07-20T04:28:57.648Z,42.98
2018-07-20T04:31:26.958Z,43.12
2018-07-20T04:33:56.518Z,43.04
2018-07-20T04:36:25.837Z,44.20
2018-07-20T04:38:55.125Z,43.22
2018-07-20T04:41:24.118Z,43.51
2018-07-20T04:43:53.115Z,43.95
2018-07-20T04:46:22.095Z,44.40
2018-07-20T04:48:51.093Z,44.08
2018-07-20T04:51:20.087Z,44.67
2018-07-20T04:53:49.049Z,44.19
2018-07-20T04:56:18.105Z,43.93
2018-07-20T04:58:47.529Z,43.89
2018-07-20T05:01:16.810Z,44.23
2018-07-20T05:03:46.166Z,44.49
2018-07-20T05:06:15.431Z,44.02
2018-07-20T05:08:44.695Z,43.98
2018-07-20T05:11:14.042Z,43.64
2018-07-20T05:13:43.394Z,44.68
2018-07-20T05:16:12.730Z,44.21
2018-07-20T05:18:42.011Z,43.86
2018-07-20T05:21:11.323Z,43.90
2018-07-20T05:23:40.729Z,43.36
2018-07-20T05:26:10.025Z,42.40
2018-07-20T05:28:39.867Z,42.93
2018-07-20T05:31:09.120Z,42.72
2018-07-20T05:33:38.574Z,42.90
2018-07-20T05:36:07.959Z,42.08
2018-07-20T05:38:37.271Z,42.22
2018-07-20T05:41:06.521Z,42.41
2018-07-20T05:43:35.951Z,42.50
2018-07-20T05:46:05.214Z,42.08
2018-07-20T05:48:34.662Z,38.96
2018-07-20T05:51:04.022Z,36.92
2018-07-20T05:53:33.363Z,35.76
2018-07-20T05:56:02.600Z,36.68
2018-07-20T05:58:31.889Z,36.25
2018-07-20T06:01:01.225Z,37.22
2018-07-20T06:03:30.461Z,37.42
2018-07-20T06:05:59.717Z,37.49
2018-07-20T06:08:29.057Z,36.18
2018-07-20T06:10:58.430Z,35.04
2018-07-20T06:13:27.667Z,33.99
2018-07-20T06:15:56.930Z,33.88
2018-07-20T06:18:26.168Z,31.67
2018-07-20T06:20:55.438Z,29.25
2018-07-20T06:23:24.955Z,31.47
2018-07-20T06:25:54.259Z,32.17
2018-07-20T06:28:23.573Z,33.43
2018-07-20T06:30:52.942Z,32.92
2018-07-20T06:33:22.279Z,32.58
2018-07-20T06:35:51.665Z,32.90
2018-07-20T06:38:20.995Z,31.65
2018-07-20T06:40:50.261Z,32.27
2018-07-20T06:43:19.570Z,31.21
2018-07-20T06:45:48.838Z,30.40
2018-07-20T06:48:18.544Z,28.45
2018-07-20T06:50:47.764Z,27.15
2018-07-20T06:53:16.771Z,25.30
2018-07-20T06:55:45.743Z,24.29
2018-07-20T06:58:14.964Z,24.06
2018-07-20T07:00:43.910Z,21.91
2018-07-20T07:03:13.234Z,23.01
2018-07-20T07:05:42.631Z,22.13
2018-07-20T07:08:11.881Z,22.08
2018-07-20T07:10:41.241Z,21.87
2018-07-20T07:13:10.774Z,22.38
2018-07-20T07:15:40.118Z,23.64
2018-07-20T07:18:09.361Z,23.22
2018-07-20T07:20:38.740Z,24.20
2018-07-20T07:23:08.003Z,23.37
2018-07-20T07:25:37.350Z,22.03
2018-07-20T07:28:07.210Z,22.09
2018-07-20T07:30:36.557Z,21.08
2018-07-20T07:33:05.922Z,21.39
2018-07-20T07:35:35.181Z,20.33
2018-07-20T07:38:04.497Z,20.63
2018-07-20T07:40:33.871Z,21.08
2018-07-20T07:43:03.182Z,21.07
2018-07-20T07:45:32.571Z,21.62
2018-07-20T07:48:01.801Z,21.37
2018-07-20T07:50:30.995Z,21.13
2018-07-20T07:53:00.486Z,21.93
2018-07-20T07:55:29.782Z,22.82
2018-07-20T07:57:59.210Z,23.17
2018-07-20T08:00:29.609Z,22.09
2018-07-20T08:02:59.014Z,22.54
2018-07-20T08:05:28.569Z,21.76
2018-07-20T08:07:57.950Z,21.64
2018-07-20T08:10:27.364Z,20.98
2018-07-20T08:12:56.770Z,21.74
2018-07-20T08:15:26.222Z,20.92
2018-07-20T08:17:55.551Z,22.21
2018-07-20T08:20:24.840Z,21.72
2018-07-20T08:22:54.291Z,22.29
2018-07-20T08:25:23.737Z,22.66
2018-07-20T08:27:53.162Z,22.95
2018-07-20T08:30:22.674Z,20.88
2018-07-20T08:32:51.967Z,21.46
2018-07-20T08:35:21.271Z,21.58
2018-07-20T08:37:50.691Z,22.37
2018-07-20T08:40:20.054Z,22.12
2018-07-20T08:42:49.492Z,21.86
2018-07-20T08:45:18.870Z,21.47
2018-07-20T08:47:48.181Z,20.62
2018-07-20T08:50:17.444Z,20.90
2018-07-20T08:52:46.945Z,21.02
2018-07-20T08:55:16.197Z,21.47
2018-07-20T08:57:45.600Z,21.34
2018-07-20T09:00:14.942Z,19.48
2018-07-20T09:02:44.210Z,19.25
2018-07-20T09:05:13.470Z,19.29
2018-07-20T09:07:42.982Z,19.73
2018-07-20T09:10:12.542Z,19.35
2018-07-20T09:12:41.914Z,20.73
2018-07-20T09:15:11.131Z,19.45
2018-07-20T09:17:40.383Z,18.06
2018-07-20T09:20:09.833Z,18.11
2018-07-20T09:22:39.194Z,18.28
2018-07-20T09:25:08.473Z,18.41
2018-07-20T09:27:37.441Z,18.44
2018-07-20T09:30:06.434Z,17.06
2018-07-20T09:32:35.378Z,20.09
2018-07-20T09:35:04.438Z,19.19
2018-07-20T09:37:33.890Z,18.15
2018-07-20T09:40:03.213Z,17.61
2018-07-20T09:42:32.490Z,17.98
2018-07-20T09:45:01.774Z,18.44
2018-07-20T09:47:31.074Z,17.59
2018-07-20T09:50:00.502Z,17.13
2018-07-20T09:52:29.941Z,16.92
2018-07-20T09:54:59.201Z,16.62
2018-07-20T09:57:28.494Z,15.69
2018-07-20T09:59:57.832Z,16.80
2018-07-20T10:02:27.603Z,16.93
2018-07-20T10:04:57.448Z,16.15
2018-07-20T10:07:27.178Z,15.41
2018-07-20T10:09:56.451Z,15.27
2018-07-20T10:12:25.734Z,13.79
2018-07-20T10:14:55.062Z,13.95
2018-07-20T10:17:24.330Z,14.10
2018-07-20T10:19:53.758Z,14.11
2018-07-20T10:22:27.644Z,16.69
2018-07-20T10:24:57.004Z,14.10
2018-07-20T10:27:26.774Z,14.04
2018-07-20T10:29:56.072Z,13.64
2018-07-20T10:32:25.444Z,13.28
2018-07-20T10:34:54.878Z,12.50
2018-07-20T10:37:24.220Z,11.05
2018-07-20T10:39:53.690Z,11.19
2018-07-20T10:42:23.051Z,13.26
2018-07-20T10:44:52.389Z,15.11
2018-07-20T10:47:21.821Z,14.56
2018-07-20T10:49:51.091Z,13.93
2018-07-20T10:52:20.374Z,13.31
2018-07-20T10:54:49.664Z,13.27
2018-07-20T10:57:19.159Z,13.55
2018-07-20T10:59:48.663Z,13.60
2018-07-20T11:02:19.002Z,13.51
2018-07-20T11:04:48.567Z,14.11
2018-07-20T11:07:17.802Z,14.60
2018-07-20T11:09:47.149Z,13.36
2018-07-20T11:12:16.506Z,13.40
2018-07-20T11:14:45.927Z,14.84
2018-07-20T11:17:15.130Z,14.96
2018-07-20T11:19:44.430Z,14.01
2018-07-20T11:22:13.784Z,14.38
2018-07-20T11:24:43.081Z,14.54
2018-07-20T11:27:12.312Z,12.97
2018-07-20T11:29:41.654Z,12.72
2018-07-20T11:32:10.926Z,12.08
2018-07-20T11:34:40.550Z,11.95
2018-07-20T11:37:09.792Z,12.77
2018-07-20T11:39:38.970Z,11.52
2018-07-20T11:42:08.192Z,11.77
2018-07-20T11:44:37.480Z,11.44
2018-07-20T11:47:06.730Z,11.99
2018-07-20T11:49:36.170Z,11.08
2018-07-20T11:52:05.403Z,12.33
2018-07-20T11:54:34.853Z,12.91
2018-07-20T11:57:04.111Z,12.99
2018-07-20T11:59:33.467Z,13.54
2018-07-20T12:02:02.929Z,13.13
2018-07-20T12:04:32.354Z,12.72
2018-07-20T12:07:01.691Z,12.38
2018-07-20T12:09:31.085Z,12.96
2018-07-20T12:12:00.338Z,12.24
2018-07-20T12:14:29.676Z,11.76
2018-07-20T12:16:58.934Z,12.63
2018-07-20T12:19:28.141Z,12.81
2018-07-20T12:21:57.458Z,11.88
2018-07-20T12:24:26.841Z,13.46
2018-07-20T12:26:56.115Z,15.19
2018-07-20T12:29:25.534Z,13.14
2018-07-20T12:31:55.021Z,12.67
2018-07-20T12:34:24.243Z,14.47
2018-07-20T12:36:53.409Z,14.05
2018-07-20T12:39:22.662Z,12.65
2018-07-20T12:41:52.013Z,11.66
2018-07-20T12:44:21.530Z,11.02
2018-07-20T12:46:50.892Z,10.81
2018-07-20T12:49:20.168Z,10.99
2018-07-20T12:51:49.606Z,10.93
2018-07-20T12:54:18.842Z,11.06
2018-07-20T12:56:47.856Z,11.58
2018-07-20T12:59:16.780Z,11.08
2018-07-20T13:01:45.969Z,10.29
2018-07-20T13:04:14.907Z,10.84
2018-07-20T13:06:44.249Z,11.11
2018-07-20T13:09:13.935Z,11.07
2018-07-20T13:11:43.759Z,11.40
2018-07-20T13:14:13.497Z,11.59
2018-07-20T13:16:43.354Z,10.98
2018-07-20T13:19:12.652Z,10.23
2018-07-20T13:21:42.209Z,13.40
2018-07-20T13:24:11.495Z,13.01
2018-07-20T13:26:40.818Z,11.82
2018-07-20T13:29:09.994Z,12.41
2018-07-20T13:31:39.309Z,12.53
2018-07-20T13:34:08.782Z,13.96
2018-07-20T13:36:38.033Z,13.62
2018-07-20T13:39:10.195Z,13.16
2018-07-20T13:41:40.374Z,12.72
2018-07-20T13:44:09.800Z,12.23
2018-07-20T13:46:39.205Z,11.89
2018-07-20T13:49:08.474Z,11.09
2018-07-20T13:51:37.995Z,10.46
2018-07-20T13:54:07.254Z,10.03
2018-07-20T13:56:36.615Z,10.41
2018-07-20T13:59:05.865Z,9.84
2018-07-20T14:01:35.214Z,10.13
2018-07-20T14:04:04.498Z,9.58
2018-07-20T14:06:33.725Z,12.21
2018-07-20T14:09:03.177Z,11.92
2018-07-20T14:11:32.520Z,11.48
2018-07-20T14:14:01.915Z,10.82
2018-07-20T14:16:31.225Z,11.83
2018-07-20T14:19:00.622Z,11.35
2018-07-20T14:21:29.998Z,10.58
2018-07-20T14:23:59.328Z,11.34
2018-07-20T14:26:28.751Z,11.20
2018-07-20T14:28:58.000Z,11.50
2018-07-20T14:31:27.284Z,11.95
2018-07-20T14:33:56.528Z,11.68
2018-07-20T14:36:26.022Z,12.27
2018-07-20T14:38:55.291Z,12.56
2018-07-20T14:41:35.750Z,11.70
2018-07-20T14:44:05.032Z,11.57
2018-07-20T14:46:34.831Z,12.27
2018-07-20T14:49:05.086Z,11.77
2018-07-20T14:51:34.342Z,11.52
2018-07-20T14:54:03.814Z,11.44
2018-07-20T14:56:33.089Z,11.19
2018-07-20T14:59:02.422Z,10.94
2018-07-20T15:01:31.833Z,10.49
2018-07-20T15:04:01.117Z,12.29
2018-07-20T15:06:30.345Z,14.13
2018-07-20T15:08:59.712Z,13.19
2018-07-20T15:11:29.048Z,13.12
2018-07-20T15:13:58.430Z,13.38
2018-07-20T15:16:27.651Z,13.68
2018-07-20T15:18:56.938Z,13.61
2018-07-20T15:21:26.246Z,12.00
2018-07-20T15:23:55.798Z,12.24
2018-07-20T15:26:25.166Z,12.27
2018-07-20T15:28:54.514Z,11.21
2018-07-20T15:31:23.730Z,11.62
2018-07-20T15:33:53.195Z,12.67
2018-07-20T15:36:22.443Z,12.63
2018-07-20T15:38:51.656Z,11.84
2018-07-20T15:41:21.161Z,13.05
2018-07-20T15:43:50.518Z,14.19
2018-07-20T15:46:19.936Z,14.32
2018-07-20T15:48:49.365Z,14.10
2018-07-20T15:51:18.771Z,13.57
2018-07-20T15:53:48.151Z,13.56
2018-07-20T15:56:17.812Z,13.13
2018-07-20T15:58:47.350Z,13.65
2018-07-20T16:01:16.635Z,14.05
2018-07-20T16:03:45.956Z,14.29
2018-07-20T16:06:15.318Z,14.17
2018-07-20T16:08:44.700Z,13.38
2018-07-20T16:11:14.205Z,13.23
2018-07-20T16:13:43.502Z,14.14
2018-07-20T16:16:12.861Z,13.40
2018-07-20T16:18:42.334Z,13.83
2018-07-20T16:21:11.749Z,14.57
2018-07-20T16:23:40.946Z,13.25
2018-07-20T16:26:10.401Z,13.63
2018-07-20T16:28:39.713Z,14.53
2018-07-20T16:31:09.174Z,14.87
2018-07-20T16:33:38.378Z,15.74
2018-07-20T16:36:07.820Z,14.21
2018-07-20T16:38:37.111Z,14.64
2018-07-20T16:41:07.217Z,15.41
2018-07-20T16:43:36.410Z,13.15
2018-07-20T16:46:05.889Z,13.78
2018-07-20T16:48:35.258Z,14.36
2018-07-20T16:51:04.462Z,13.89
2018-07-20T16:53:33.834Z,14.31
2018-07-20T16:56:03.278Z,13.34
2018-07-20T16:58:32.870Z,12.92
2018-07-20T17:01:02.161Z,13.37
2018-07-20T17:03:31.659Z,13.94
2018-07-20T17:06:00.969Z,14.53
2018-07-20T17:08:30.313Z,14.18
2018-07-20T17:10:59.568Z,14.64
2018-07-20T17:13:28.902Z,14.04
2018-07-20T17:15:58.430Z,14.05
2018-07-20T17:18:27.880Z,13.50
2018-07-20T17:20:57.137Z,13.86
2018-07-20T17:23:26.504Z,14.04
2018-07-20T17:25:55.944Z,14.27
2018-07-20T17:28:25.381Z,14.42
2018-07-20T17:30:54.545Z,14.42
2018-07-20T17:33:23.978Z,13.76
2018-07-20T17:35:53.197Z,14.15
2018-07-20T17:38:22.745Z,14.18
2018-07-20T17:40:52.015Z,14.12
2018-07-20T17:43:21.530Z,14.69
2018-07-20T17:45:50.816Z,14.78
2018-07-20T17:48:20.230Z,15.24
2018-07-20T17:50:49.541Z,16.37
2018-07-20T17:53:18.904Z,16.53
2018-07-20T17:55:48.324Z,16.66
2018-07-20T17:58:17.709Z,16.21
2018-07-20T18:00:46.986Z,17.03
2018-07-20T18:03:16.462Z,16.36
2018-07-20T18:05:45.774Z,18.21
2018-07-20T18:08:15.018Z,16.93
2018-07-20T18:10:44.286Z,16.79
2018-07-20T18:13:13.722Z,16.64
2018-07-20T18:15:43.097Z,16.17
2018-07-20T18:18:12.323Z,15.91
2018-07-20T18:20:41.601Z,16.63
2018-07-20T18:23:11.339Z,16.30
2018-07-20T18:25:40.588Z,17.26
2018-07-20T18:28:09.733Z,17.13
2018-07-20T18:30:39.081Z,16.94
2018-07-20T18:33:08.462Z,16.71
2018-07-20T18:35:37.731Z,16.91
2018-07-20T18:38:07.126Z,17.47
2018-07-20T18:40:36.488Z,17.95
2018-07-20T18:43:05.737Z,17.92
2018-07-20T18:45:35.041Z,17.98
2018-07-20T18:48:04.962Z,17.81
2018-07-20T18:50:35.039Z,17.81
2018-07-20T18:53:04.405Z,18.32
2018-07-20T18:55:33.621Z,18.34
2018-07-20T18:58:02.881Z,18.68
2018-07-20T19:00:32.349Z,19.14
2018-07-20T19:03:01.682Z,19.21
2018-07-20T19:05:31.071Z,18.98
2018-07-20T19:08:00.375Z,19.53
2018-07-20T19:10:29.551Z,19.39
2018-07-20T19:12:58.912Z,19.31
2018-07-20T19:15:28.175Z,19.86
2018-07-20T19:17:57.647Z,19.71
2018-07-20T19:20:26.850Z,19.57
2018-07-20T19:22:56.297Z,19.55
2018-07-20T19:25:25.534Z,19.66
2018-07-20T19:27:54.787Z,24.09
2018-07-20T19:30:24.279Z,20.67
2018-07-20T19:32:53.702Z,20.40
2018-07-20T19:35:23.058Z,20.54
2018-07-20T19:37:52.413Z,20.48
2018-07-20T19:40:21.708Z,20.44
2018-07-20T19:42:50.682Z,21.02
2018-07-20T19:45:19.942Z,20.90
2018-07-20T19:47:49.209Z,20.90
2018-07-20T19:50:19.581Z,21.33
2018-07-20T19:52:48.882Z,22.38
2018-07-20T19:55:18.097Z,22.32
2018-07-20T19:57:47.334Z,22.83
2018-07-20T20:00:16.280Z,23.90
2018-07-20T20:02:45.618Z,24.11
2018-07-20T20:05:14.902Z,24.38
2018-07-20T20:07:44.343Z,24.26
2018-07-20T20:10:13.680Z,23.98
2018-07-20T20:12:43.013Z,24.10
2018-07-20T20:15:12.350Z,23.67
2018-07-20T20:17:41.601Z,24.26
2018-07-20T20:20:13.171Z,24.23
2018-07-20T20:22:43.195Z,24.43
2018-07-20T20:25:12.590Z,24.88
2018-07-20T20:27:42.224Z,24.99
2018-07-20T20:30:11.551Z,25.12
2018-07-20T20:32:40.764Z,25.95
2018-07-20T20:35:10.009Z,25.34
2018-07-20T20:37:39.456Z,24.82
2018-07-20T20:40:09.489Z,25.09
2018-07-20T20:42:38.769Z,25.66
2018-07-20T20:45:08.691Z,25.56
2018-07-20T20:47:38.164Z,25.71
2018-07-20T20:50:07.746Z,26.05
2018-07-20T20:52:37.362Z,26.74
2018-07-20T20:55:06.884Z,26.45
2018-07-20T20:57:36.258Z,26.83
2018-07-20T21:00:06.230Z,27.67
2018-07-20T21:02:35.332Z,28.29
2018-07-20T21:05:04.702Z,28.25
2018-07-20T21:07:33.937Z,29.43
2018-07-20T21:10:03.183Z,29.24
2018-07-20T21:12:32.543Z,29.68
2018-07-20T21:15:01.951Z,29.50
2018-07-20T21:17:31.201Z,29.85
2018-07-20T21:20:00.466Z,30.18
2018-07-20T21:22:30.117Z,30.21
2018-07-20T21:24:59.718Z,30.26
2018-07-20T21:27:29.144Z,30.11
2018-07-20T21:30:03.237Z,31.23
2018-07-20T21:32:32.521Z,30.82
2018-07-20T21:35:01.911Z,31.04
2018-07-20T21:37:31.311Z,31.19
2018-07-20T21:40:00.751Z,31.31
2018-07-20T21:42:30.099Z,31.05
2018-07-20T21:44:59.410Z,31.53
2018-07-20T21:47:29.036Z,30.94
2018-07-20T21:49:58.331Z,31.45
2018-07-20T21:52:27.596Z,31.30
2018-07-20T21:54:56.866Z,31.20
2018-07-20T21:57:26.210Z,31.18
2018-07-20T21:59:55.444Z,31.31
2018-07-20T22:02:24.816Z,31.62
2018-07-20T22:04:54.249Z,32.21
2018-07-20T22:07:23.623Z,32.18
2018-07-20T22:09:52.977Z,31.57
2018-07-20T22:12:22.196Z,31.50
2018-07-20T22:14:51.583Z,31.40
2018-07-20T22:17:20.803Z,31.56
2018-07-20T22:19:50.061Z,31.48
2018-07-20T22:22:19.309Z,31.75
2018-07-20T22:24:48.492Z,32.05
2018-07-20T22:27:17.537Z,31.75
2018-07-20T22:29:46.859Z,31.78
2018-07-20T22:32:16.116Z,32.05
2018-07-20T22:34:45.482Z,31.92
2018-07-20T22:37:14.834Z,32.90
2018-07-20T22:39:44.150Z,33.12
2018-07-20T22:42:13.523Z,33.34
2018-07-20T22:44:43.227Z,33.53
2018-07-20T22:47:12.590Z,35.34
2018-07-20T22:49:41.852Z,34.44
2018-07-20T22:52:11.221Z,34.87
2018-07-20T22:54:40.889Z,34.54
2018-07-20T22:57:10.300Z,35.95
2018-07-20T22:59:39.732Z,36.23
2018-07-20T23:02:08.950Z,35.75
2018-07-20T23:04:38.454Z,34.94
2018-07-20T23:07:07.741Z,35.30
2018-07-20T23:09:37.014Z,35.12
2018-07-20T23:12:06.382Z,34.85
2018-07-20T23:14:35.896Z,34.67
2018-07-20T23:17:05.269Z,35.05
2018-07-20T23:19:34.523Z,34.42
2018-07-20T23:22:03.895Z,33.72
2018-07-20T23:24:33.418Z,34.22
2018-07-20T23:27:02.780Z,34.04
2018-07-20T23:29:31.995Z,33.80
2018-07-20T23:32:01.387Z,33.96
2018-07-20T23:34:30.791Z,34.12
2018-07-20T23:36:59.991Z,34.86
2018-07-20T23:39:29.341Z,34.86
2018-07-20T23:41:58.571Z,34.66
2018-07-20T23:44:27.821Z,34.12
2018-07-20T23:46:57.083Z,34.30
2018-07-20T23:49:26.305Z,35.14
2018-07-20T23:51:55.629Z,35.85
2018-07-20T23:54:25.010Z,35.75
2018-07-20T23:56:54.295Z,35.02
2018-07-20T23:59:23.868Z,34.55
